createdAt,value
2023-02-16T00:01:45.826Z,28.97
2023-02-16T00:04:21.253Z,30.07
2023-02-16T00:06:49.946Z,32.53
2023-02-16T00:09:18.873Z,24.57
2023-02-16T00:12:06.901Z,29.53
2023-02-16T00:14:38.582Z,29.30
2023-02-16T00:17:07.462Z,31.87
2023-02-16T00:19:37.170Z,33.17
2023-02-16T00:22:06.546Z,33.33
2023-02-16T00:24:35.543Z,33.90
2023-02-16T00:27:03.681Z,31.27
2023-02-16T00:29:34.053Z,31.67
2023-02-16T00:32:06.029Z,28.97
2023-02-16T00:34:35.642Z,46.53
2023-02-16T00:37:05.716Z,35.33
2023-02-16T00:39:34.839Z,35.03
2023-02-16T00:42:30.216Z,37.97
2023-02-16T02:44:32.227Z,33.67
2023-02-16T02:47:00.560Z,36.23
2023-02-16T02:49:28.575Z,35.13
2023-02-16T02:51:56.887Z,36.20
2023-02-16T03:00:17.092Z,34.83
2023-02-16T03:02:48.508Z,39.47
2023-02-16T03:08:15.360Z,35.47
2023-02-16T03:25:52.773Z,38.43
2023-02-16T03:48:46.508Z,32.63
2023-02-16T03:54:06.733Z,46.03
2023-02-16T03:56:34.795Z,38.67
2023-02-16T03:59:02.801Z,43.53
2023-02-16T04:01:31.391Z,36.53
2023-02-16T04:04:00.996Z,39.40
2023-02-16T04:06:29.450Z,40.00
2023-02-16T04:08:57.745Z,38.17
2023-02-16T04:22:08.544Z,34.50
2023-02-16T04:25:01.961Z,38.23
2023-02-16T04:27:30.210Z,39.10
2023-02-16T04:29:58.216Z,37.47
2023-02-16T04:32:26.261Z,42.27
2023-02-16T04:34:54.445Z,39.50
2023-02-16T04:42:57.546Z,37.20
2023-02-16T04:45:26.948Z,39.57
2023-02-16T04:47:54.946Z,33.07
2023-02-16T04:55:47.667Z,37.30
2023-02-16T04:58:15.848Z,44.07
2023-02-16T05:00:45.261Z,34.97
2023-02-16T05:03:13.474Z,39.00
2023-02-16T05:05:41.585Z,35.10
2023-02-16T05:08:09.698Z,38.90
2023-02-16T05:13:36.824Z,39.53
2023-02-16T05:16:06.892Z,32.57
2023-02-16T05:18:34.904Z,34.80
2023-02-16T05:23:58.390Z,42.90
2023-02-16T05:26:26.422Z,45.07
2023-02-16T05:28:54.815Z,43.77
2023-02-16T05:31:25.523Z,37.77
2023-02-16T05:33:53.616Z,40.87
2023-02-16T05:36:23.052Z,37.23
2023-02-16T05:38:51.563Z,39.27
2023-02-16T05:41:24.420Z,42.03
2023-02-16T05:43:53.715Z,36.03
2023-02-16T05:46:22.127Z,42.87
2023-02-16T05:48:51.982Z,48.50
2023-02-16T05:51:20.897Z,37.17
2023-02-16T05:53:48.910Z,35.90
2023-02-16T05:56:17.075Z,36.30
2023-02-16T05:58:45.410Z,41.80
2023-02-16T06:01:15.187Z,43.70
2023-02-16T06:03:43.493Z,44.30
2023-02-16T06:06:13.221Z,43.17
2023-02-16T06:08:41.604Z,37.37
2023-02-16T06:11:30.268Z,47.70
2023-02-16T06:13:59.429Z,38.13
2023-02-16T06:16:28.211Z,44.17
2023-02-16T06:18:56.895Z,46.67
2023-02-16T06:21:29.729Z,43.83
2023-02-16T06:23:57.870Z,39.67
2023-02-16T06:26:26.706Z,40.37
2023-02-16T06:28:55.044Z,33.03
2023-02-16T06:31:23.634Z,45.00
2023-02-16T07:00:31.584Z,42.30
2023-02-16T07:03:14.940Z,35.20
2023-02-16T07:05:44.929Z,37.83
2023-02-16T07:08:12.925Z,39.23
2023-02-16T07:10:50.130Z,35.70
2023-02-16T07:13:18.535Z,33.27
2023-02-16T07:18:57.743Z,36.77
2023-02-16T07:22:03.048Z,39.80
2023-02-16T07:24:32.559Z,36.03
2023-02-16T07:35:28.430Z,38.57
2023-02-16T07:37:56.763Z,38.13
2023-02-16T07:40:26.856Z,35.77
2023-02-16T07:42:57.546Z,35.67
2023-02-16T07:45:25.507Z,33.23
2023-02-16T07:47:53.472Z,36.43
2023-02-16T07:50:21.842Z,36.60
2023-02-16T07:52:49.854Z,31.90
2023-02-16T07:55:17.932Z,39.20
2023-02-16T07:57:49.655Z,31.70
2023-02-16T08:00:18.655Z,36.60
2023-02-16T08:02:48.845Z,31.60
2023-02-16T08:05:17.532Z,35.80
2023-02-16T08:07:46.703Z,32.43
2023-02-16T08:10:15.709Z,38.27
2023-02-16T08:12:44.295Z,33.93
2023-02-16T08:15:13.720Z,38.57
2023-02-16T08:17:41.709Z,35.63
2023-02-16T08:20:10.845Z,36.43
2023-02-16T08:22:38.835Z,36.80
2023-02-16T08:25:07.824Z,37.40
2023-02-16T08:27:40.262Z,36.30
2023-02-16T08:30:12.759Z,37.57
2023-02-16T08:32:42.489Z,30.70
2023-02-16T08:35:11.112Z,36.47
2023-02-16T08:37:39.411Z,32.97
2023-02-16T08:40:10.347Z,33.40
2023-02-16T08:42:38.862Z,34.53
2023-02-16T08:45:07.411Z,34.70
2023-02-16T08:47:36.539Z,40.17
2023-02-16T08:50:07.718Z,32.93
2023-02-16T08:52:35.707Z,37.67
2023-02-16T08:55:03.875Z,36.47
2023-02-16T08:57:34.966Z,39.33
2023-02-16T09:00:21.171Z,35.97
2023-02-16T09:02:50.000Z,31.73
2023-02-16T09:05:19.708Z,35.90
2023-02-16T09:07:48.904Z,37.93
2023-02-16T09:10:17.203Z,32.27
2023-02-16T09:12:48.427Z,37.20
2023-02-16T09:15:17.015Z,31.23
2023-02-16T09:17:45.012Z,34.90
2023-02-16T09:22:49.878Z,36.07
2023-02-16T09:25:18.010Z,32.33
2023-02-16T09:27:45.969Z,37.27
2023-02-16T09:30:15.087Z,31.33
2023-02-16T09:32:43.398Z,40.27
2023-02-16T09:35:11.706Z,38.93
2023-02-16T09:37:39.803Z,34.27
2023-02-16T09:40:13.688Z,36.53
2023-02-16T09:42:55.305Z,40.90
2023-02-16T09:45:26.837Z,36.87
2023-02-16T09:47:56.677Z,33.63
2023-02-16T09:50:52.038Z,36.53
2023-02-16T09:53:23.790Z,35.20
2023-02-16T09:56:03.217Z,31.80
2023-02-16T09:58:40.446Z,36.97
2023-02-16T10:01:17.965Z,32.80
2023-02-16T10:03:56.148Z,35.77
2023-02-16T10:06:49.428Z,33.10
2023-02-16T10:09:19.674Z,38.60
2023-02-16T10:11:54.434Z,34.53
2023-02-16T10:14:35.170Z,35.67
2023-02-16T10:17:12.344Z,37.30
2023-02-16T10:19:44.785Z,36.43
2023-02-16T10:22:17.768Z,36.93
2023-02-16T10:24:54.745Z,36.30
2023-02-16T10:27:24.887Z,36.07
2023-02-16T10:29:53.829Z,33.70
2023-02-16T10:32:29.306Z,39.47
2023-02-16T10:35:06.635Z,41.97
2023-02-16T10:37:47.882Z,41.37
2023-02-16T10:45:44.376Z,36.20
2023-02-16T10:48:13.283Z,35.07
2023-02-16T10:53:20.846Z,36.13
2023-02-16T10:55:48.925Z,36.10
2023-02-16T10:58:22.723Z,32.72
2023-02-16T11:00:59.771Z,33.23
2023-02-16T11:06:16.744Z,39.13
2023-02-16T11:08:50.028Z,43.90
2023-02-16T11:11:20.250Z,36.13
2023-02-16T11:16:45.857Z,38.53
2023-02-16T11:37:07.223Z,35.73
2023-02-16T11:44:57.278Z,39.93
2023-02-16T11:47:28.285Z,32.87
2023-02-16T11:50:18.998Z,35.37
2023-02-16T11:52:49.753Z,40.88
2023-02-16T11:57:54.105Z,41.70
2023-02-16T18:24:37.462Z,33.33
2023-02-16T18:27:08.081Z,40.60
2023-02-16T18:32:13.680Z,39.20
2023-02-16T18:34:43.265Z,37.83
2023-02-16T18:37:12.433Z,33.53
2023-02-16T18:39:48.008Z,40.57
2023-02-16T18:42:17.959Z,39.83
2023-02-16T18:44:48.366Z,35.53
2023-02-16T18:47:16.680Z,36.30
2023-02-16T18:49:45.253Z,36.60
2023-02-16T18:52:13.672Z,44.40
2023-02-16T18:54:44.031Z,38.57
2023-02-16T18:57:12.208Z,39.87
2023-02-16T18:59:40.947Z,38.27
2023-02-16T19:02:09.629Z,39.00
2023-02-16T19:04:39.623Z,35.87
2023-02-16T19:07:08.524Z,34.53
2023-02-16T19:09:37.115Z,35.77
2023-02-16T19:12:07.433Z,37.37
2023-02-16T19:14:55.887Z,35.33
2023-02-16T19:17:24.280Z,37.10
2023-02-16T19:19:53.688Z,40.60
2023-02-16T19:22:23.451Z,33.50
2023-02-16T19:24:52.336Z,35.13
2023-02-16T19:27:23.614Z,33.00
2023-02-16T19:29:53.718Z,36.17
2023-02-16T19:34:57.778Z,35.13
2023-02-16T19:37:25.899Z,34.70
2023-02-16T19:42:31.905Z,43.97
2023-02-16T19:45:00.321Z,38.20
2023-02-16T19:47:34.925Z,38.17
2023-02-16T19:50:04.009Z,46.13
2023-02-16T19:52:32.184Z,38.63
2023-02-16T19:57:50.931Z,38.87
2023-02-16T20:00:20.078Z,42.70
2023-02-16T20:02:48.216Z,40.10
2023-02-16T20:05:16.479Z,43.50
2023-02-16T20:07:44.619Z,40.07
2023-02-16T20:10:12.756Z,45.80
2023-02-16T20:12:40.902Z,40.83
2023-02-16T20:15:13.972Z,43.10
2023-02-16T20:17:42.499Z,40.07
2023-02-16T20:20:11.165Z,42.77
2023-02-16T20:22:39.307Z,47.47
2023-02-16T20:25:08.483Z,45.27
2023-02-16T20:27:38.907Z,41.20
2023-02-16T20:30:09.277Z,44.20
2023-02-16T20:32:39.708Z,47.97
2023-02-16T20:35:08.504Z,45.50
2023-02-16T20:37:36.997Z,50.77
2023-02-16T20:40:10.800Z,49.00
2023-02-16T20:42:39.611Z,44.30
2023-02-16T20:45:08.908Z,46.07
2023-02-16T20:47:38.304Z,47.10
2023-02-16T20:50:08.629Z,47.97
2023-02-16T20:52:37.003Z,47.37
2023-02-16T20:55:06.634Z,46.77
2023-02-16T20:57:39.128Z,47.80
2023-02-16T21:00:13.130Z,54.67
2023-02-16T21:02:43.932Z,45.73
2023-02-16T21:05:13.464Z,47.13
2023-02-16T21:07:42.293Z,45.00
2023-02-16T21:10:12.772Z,49.60
2023-02-16T21:12:41.351Z,47.30
2023-02-16T21:15:10.663Z,47.97
2023-02-16T21:17:41.011Z,49.53
2023-02-16T21:20:11.686Z,47.13
2023-02-16T21:22:40.383Z,53.97
2023-02-16T21:25:11.593Z,45.13
2023-02-16T21:27:41.639Z,49.13
2023-02-16T21:30:11.231Z,51.30
2023-02-16T21:32:39.698Z,48.17
2023-02-16T21:35:08.550Z,49.23
2023-02-16T21:37:38.686Z,52.23
2023-02-16T21:40:26.583Z,49.17
2023-02-16T21:42:56.361Z,50.87
2023-02-16T21:45:24.922Z,53.43
2023-02-16T21:48:11.886Z,63.50
2023-02-16T21:50:42.719Z,49.40
2023-02-16T21:53:12.340Z,53.80
2023-02-16T21:56:07.223Z,50.73
2023-02-16T21:58:36.014Z,51.10
2023-02-16T22:01:04.234Z,47.53
2023-02-16T22:03:33.765Z,53.23
2023-02-16T22:06:03.896Z,52.17
2023-02-16T22:08:37.904Z,48.70
2023-02-16T22:11:09.748Z,45.40
2023-02-16T22:13:38.790Z,47.33
2023-02-16T22:16:12.508Z,51.87
2023-02-16T22:18:43.705Z,44.30
2023-02-16T22:21:13.608Z,44.07
2023-02-16T22:23:43.507Z,42.60
2023-02-16T22:26:24.043Z,43.07
2023-02-16T22:28:52.748Z,44.20
2023-02-16T22:31:23.518Z,40.87
2023-02-16T22:33:57.126Z,44.15
2023-02-16T22:36:25.368Z,42.90
2023-02-16T22:38:55.763Z,40.70
2023-02-16T22:41:25.602Z,40.55
2023-02-16T22:43:55.387Z,40.90
2023-02-16T22:46:25.383Z,42.20
2023-02-16T22:48:54.690Z,39.90
2023-02-16T22:51:23.273Z,42.63
2023-02-16T22:53:51.505Z,42.23
2023-02-16T22:56:21.695Z,40.55
2023-02-16T22:58:50.019Z,37.57
2023-02-16T23:01:21.203Z,37.53
2023-02-16T23:03:52.653Z,37.03
2023-02-16T23:06:23.124Z,36.27
2023-02-16T23:08:54.423Z,36.13
2023-02-16T23:11:25.109Z,34.70
2023-02-16T23:13:53.671Z,35.55
2023-02-16T23:16:24.394Z,33.67
2023-02-16T23:18:54.607Z,34.03
2023-02-16T23:21:28.003Z,34.42
2023-02-16T23:23:56.743Z,31.80
2023-02-16T23:26:29.574Z,29.60
2023-02-16T23:29:00.462Z,29.05
2023-02-16T23:37:20.844Z,26.70
2023-02-16T23:39:49.423Z,25.80
2023-02-16T23:42:19.320Z,24.80
2023-02-16T23:44:49.608Z,25.93
2023-02-16T23:47:18.227Z,23.63
2023-02-16T23:49:46.605Z,22.77
2023-02-16T23:52:15.275Z,23.47
2023-02-16T23:54:43.592Z,23.02
2023-02-16T23:57:12.381Z,21.05
2023-02-16T23:59:43.416Z,20.40
